sensor_id;sensor_type;location;lat;lon;timestamp;P1;durP1;ratioP1;P2;durP2;ratioP2
24485;SDS011;13449;49.374;8.584;2022-07-12T00:01:59;5.15;;;1.73;;
24485;SDS011;13449;49.374;8.584;2022-07-12T00:04:29;1.77;;;1.38;;
24485;SDS011;13449;49.374;8.584;2022-07-12T00:06:56;1.70;;;0.98;;
24485;SDS011;13449;49.374;8.584;2022-07-12T00:09:24;2.22;;;1.38;;
24485;SDS011;13449;49.374;8.584;2022-07-12T00:11:51;0.98;;;0.93;;
24485;SDS011;13449;49.374;8.584;2022-07-12T00:14:17;1.13;;;1.02;;
24485;SDS011;13449;49.374;8.584;2022-07-12T00:16:44;1.10;;;0.98;;
24485;SDS011;13449;49.374;8.584;2022-07-12T00:19:10;1.00;;;0.85;;
24485;SDS011;13449;49.374;8.584;2022-07-12T00:21:37;1.20;;;0.90;;
24485;SDS011;13449;49.374;8.584;2022-07-12T00:24:04;1.40;;;0.85;;
24485;SDS011;13449;49.374;8.584;2022-07-12T00:26:31;1.02;;;0.90;;
24485;SDS011;13449;49.374;8.584;2022-07-12T00:28:57;1.27;;;0.80;;
24485;SDS011;13449;49.374;8.584;2022-07-12T00:31:24;0.70;;;0.70;;
24485;SDS011;13449;49.374;8.584;2022-07-12T00:33:51;2.15;;;0.65;;
24485;SDS011;13449;49.374;8.584;2022-07-12T00:36:18;0.88;;;0.60;;
24485;SDS011;13449;49.374;8.584;2022-07-12T00:38:47;0.50;;;0.50;;
24485;SDS011;13449;49.374;8.584;2022-07-12T00:41:16;1.20;;;0.77;;
24485;SDS011;13449;49.374;8.584;2022-07-12T00:43:43;0.60;;;0.60;;
24485;SDS011;13449;49.374;8.584;2022-07-12T00:46:09;1.20;;;0.77;;
24485;SDS011;13449;49.374;8.584;2022-07-12T00:48:36;0.70;;;0.70;;
24485;SDS011;13449;49.374;8.584;2022-07-12T00:51:05;1.02;;;0.93;;
24485;SDS011;13449;49.374;8.584;2022-07-12T00:53:35;1.20;;;1.10;;
24485;SDS011;13449;49.374;8.584;2022-07-12T00:56:02;1.42;;;0.85;;
24485;SDS011;13449;49.374;8.584;2022-07-12T00:58:31;0.90;;;0.90;;
24485;SDS011;13449;49.374;8.584;2022-07-12T01:00:59;1.30;;;1.13;;
24485;SDS011;13449;49.374;8.584;2022-07-12T01:03:28;0.85;;;0.85;;
24485;SDS011;13449;49.374;8.584;2022-07-12T01:05:55;3.40;;;1.40;;
24485;SDS011;13449;49.374;8.584;2022-07-12T01:08:22;1.08;;;0.93;;
24485;SDS011;13449;49.374;8.584;2022-07-12T01:10:50;2.17;;;1.08;;
24485;SDS011;13449;49.374;8.584;2022-07-12T01:13:16;2.47;;;1.33;;
24485;SDS011;13449;49.374;8.584;2022-07-12T01:15:43;1.77;;;1.30;;
24485;SDS011;13449;49.374;8.584;2022-07-12T01:18:13;1.63;;;0.90;;
24485;SDS011;13449;49.374;8.584;2022-07-12T01:20:41;0.90;;;0.90;;
24485;SDS011;13449;49.374;8.584;2022-07-12T01:23:08;1.70;;;1.40;;
24485;SDS011;13449;49.374;8.584;2022-07-12T01:25:35;1.08;;;1.00;;
24485;SDS011;13449;49.374;8.584;2022-07-12T01:28:02;3.22;;;0.90;;
24485;SDS011;13449;49.374;8.584;2022-07-12T01:30:29;2.33;;;1.25;;
24485;SDS011;13449;49.374;8.584;2022-07-12T01:32:58;4.50;;;1.02;;
24485;SDS011;13449;49.374;8.584;2022-07-12T01:35:27;5.75;;;1.13;;
24485;SDS011;13449;49.374;8.584;2022-07-12T01:37:56;0.98;;;0.90;;
24485;SDS011;13449;49.374;8.584;2022-07-12T01:40:23;2.55;;;1.05;;
24485;SDS011;13449;49.374;8.584;2022-07-12T01:42:52;2.03;;;1.05;;
24485;SDS011;13449;49.374;8.584;2022-07-12T01:45:20;1.45;;;1.35;;
24485;SDS011;13449;49.374;8.584;2022-07-12T01:47:48;4.88;;;1.40;;
24485;SDS011;13449;49.374;8.584;2022-07-12T01:50:17;4.18;;;1.55;;
24485;SDS011;13449;49.374;8.584;2022-07-12T01:52:46;1.10;;;1.00;;
24485;SDS011;13449;49.374;8.584;2022-07-12T01:55:19;2.97;;;1.77;;
24485;SDS011;13449;49.374;8.584;2022-07-12T01:57:52;1.20;;;1.10;;
24485;SDS011;13449;49.374;8.584;2022-07-12T02:00:23;2.13;;;1.35;;
24485;SDS011;13449;49.374;8.584;2022-07-12T02:02:49;1.98;;;1.60;;
24485;SDS011;13449;49.374;8.584;2022-07-12T02:05:19;2.33;;;0.90;;
24485;SDS011;13449;49.374;8.584;2022-07-12T02:07:45;1.20;;;1.10;;
24485;SDS011;13449;49.374;8.584;2022-07-12T02:10:13;1.75;;;1.13;;
24485;SDS011;13449;49.374;8.584;2022-07-12T02:12:40;2.25;;;1.48;;
24485;SDS011;13449;49.374;8.584;2022-07-12T02:15:11;2.75;;;1.13;;
24485;SDS011;13449;49.374;8.584;2022-07-12T02:17:40;6.25;;;1.60;;
24485;SDS011;13449;49.374;8.584;2022-07-12T02:20:08;1.90;;;1.55;;
24485;SDS011;13449;49.374;8.584;2022-07-12T02:22:35;1.73;;;1.55;;
24485;SDS011;13449;49.374;8.584;2022-07-12T02:25:02;3.20;;;1.15;;
24485;SDS011;13449;49.374;8.584;2022-07-12T02:27:29;1.35;;;1.25;;
24485;SDS011;13449;49.374;8.584;2022-07-12T02:29:56;0.95;;;0.80;;
24485;SDS011;13449;49.374;8.584;2022-07-12T02:32:22;2.42;;;1.35;;
24485;SDS011;13449;49.374;8.584;2022-07-12T02:34:49;4.50;;;1.48;;
24485;SDS011;13449;49.374;8.584;2022-07-12T02:37:15;2.17;;;1.60;;
24485;SDS011;13449;49.374;8.584;2022-07-12T02:39:44;2.10;;;1.10;;
24485;SDS011;13449;49.374;8.584;2022-07-12T02:42:13;1.73;;;1.40;;
24485;SDS011;13449;49.374;8.584;2022-07-12T02:44:42;2.35;;;1.42;;
24485;SDS011;13449;49.374;8.584;2022-07-12T02:47:08;1.65;;;1.40;;
24485;SDS011;13449;49.374;8.584;2022-07-12T02:49:37;5.25;;;1.33;;
24485;SDS011;13449;49.374;8.584;2022-07-12T02:52:04;1.52;;;1.10;;
24485;SDS011;13449;49.374;8.584;2022-07-12T02:54:30;2.90;;;2.25;;
24485;SDS011;13449;49.374;8.584;2022-07-12T02:56:57;2.78;;;1.67;;
24485;SDS011;13449;49.374;8.584;2022-07-12T02:59:26;2.85;;;1.63;;
24485;SDS011;13449;49.374;8.584;2022-07-12T03:01:52;4.32;;;1.67;;
24485;SDS011;13449;49.374;8.584;2022-07-12T03:04:19;4.03;;;0.80;;
24485;SDS011;13449;49.374;8.584;2022-07-12T03:06:48;2.20;;;1.35;;
24485;SDS011;13449;49.374;8.584;2022-07-12T03:09:16;1.20;;;1.10;;
24485;SDS011;13449;49.374;8.584;2022-07-12T03:11:44;3.70;;;1.60;;
24485;SDS011;13449;49.374;8.584;2022-07-12T03:14:11;3.65;;;2.35;;
24485;SDS011;13449;49.374;8.584;2022-07-12T03:16:40;7.80;;;1.60;;
24485;SDS011;13449;49.374;8.584;2022-07-12T03:19:06;4.10;;;1.45;;
24485;SDS011;13449;49.374;8.584;2022-07-12T03:21:35;5.97;;;1.40;;
24485;SDS011;13449;49.374;8.584;2022-07-12T03:24:04;1.70;;;1.60;;
24485;SDS011;13449;49.374;8.584;2022-07-12T03:26:30;1.88;;;1.67;;
24485;SDS011;13449;49.374;8.584;2022-07-12T03:28:57;4.63;;;1.83;;
24485;SDS011;13449;49.374;8.584;2022-07-12T03:31:27;3.40;;;1.33;;
24485;SDS011;13449;49.374;8.584;2022-07-12T03:33:55;2.40;;;1.40;;
24485;SDS011;13449;49.374;8.584;2022-07-12T03:36:22;1.67;;;1.40;;
24485;SDS011;13449;49.374;8.584;2022-07-12T03:38:48;2.67;;;1.67;;
24485;SDS011;13449;49.374;8.584;2022-07-12T03:41:15;7.60;;;1.90;;
24485;SDS011;13449;49.374;8.584;2022-07-12T03:43:41;4.00;;;1.70;;
24485;SDS011;13449;49.374;8.584;2022-07-12T03:46:10;2.10;;;1.88;;
24485;SDS011;13449;49.374;8.584;2022-07-12T03:48:39;1.83;;;1.40;;
24485;SDS011;13449;49.374;8.584;2022-07-12T03:51:05;2.33;;;1.48;;
24485;SDS011;13449;49.374;8.584;2022-07-12T03:53:32;2.20;;;1.35;;
24485;SDS011;13449;49.374;8.584;2022-07-12T03:55:58;3.03;;;2.08;;
24485;SDS011;13449;49.374;8.584;2022-07-12T03:58:25;5.13;;;2.10;;
24485;SDS011;13449;49.374;8.584;2022-07-12T04:00:54;1.25;;;1.15;;
24485;SDS011;13449;49.374;8.584;2022-07-12T04:03:20;4.20;;;2.60;;
24485;SDS011;13449;49.374;8.584;2022-07-12T04:05:47;4.07;;;2.10;;
24485;SDS011;13449;49.374;8.584;2022-07-12T04:08:14;2.20;;;1.73;;
24485;SDS011;13449;49.374;8.584;2022-07-12T04:10:41;3.83;;;1.88;;
24485;SDS011;13449;49.374;8.584;2022-07-12T04:13:08;2.30;;;1.45;;
24485;SDS011;13449;49.374;8.584;2022-07-12T04:15:34;2.95;;;1.85;;
24485;SDS011;13449;49.374;8.584;2022-07-12T04:18:01;5.70;;;1.90;;
24485;SDS011;13449;49.374;8.584;2022-07-12T04:20:27;2.10;;;1.98;;
24485;SDS011;13449;49.374;8.584;2022-07-12T04:22:54;3.35;;;1.58;;
24485;SDS011;13449;49.374;8.584;2022-07-12T04:25:23;1.83;;;1.42;;
24485;SDS011;13449;49.374;8.584;2022-07-12T04:27:51;1.75;;;1.65;;
24485;SDS011;13449;49.374;8.584;2022-07-12T04:30:17;1.63;;;1.40;;
24485;SDS011;13449;49.374;8.584;2022-07-12T04:32:44;3.95;;;1.50;;
24485;SDS011;13449;49.374;8.584;2022-07-12T04:35:10;2.15;;;1.90;;
24485;SDS011;13449;49.374;8.584;2022-07-12T04:37:37;1.75;;;1.48;;
24485;SDS011;13449;49.374;8.584;2022-07-12T04:40:06;2.72;;;1.83;;
24485;SDS011;13449;49.374;8.584;2022-07-12T04:42:33;6.45;;;1.88;;
24485;SDS011;13449;49.374;8.584;2022-07-12T04:45:01;3.35;;;1.70;;
24485;SDS011;13449;49.374;8.584;2022-07-12T04:47:30;1.05;;;1.05;;
24485;SDS011;13449;49.374;8.584;2022-07-12T04:49:57;2.60;;;1.60;;
24485;SDS011;13449;49.374;8.584;2022-07-12T04:52:26;4.13;;;2.13;;
24485;SDS011;13449;49.374;8.584;2022-07-12T04:54:52;3.15;;;1.70;;
24485;SDS011;13449;49.374;8.584;2022-07-12T04:57:19;6.05;;;1.50;;
24485;SDS011;13449;49.374;8.584;2022-07-12T04:59:45;2.85;;;1.77;;
24485;SDS011;13449;49.374;8.584;2022-07-12T05:02:14;1.65;;;1.48;;
24485;SDS011;13449;49.374;8.584;2022-07-12T05:04:41;3.75;;;1.80;;
24485;SDS011;13449;49.374;8.584;2022-07-12T05:07:09;4.22;;;1.20;;
24485;SDS011;13449;49.374;8.584;2022-07-12T05:09:37;2.47;;;1.92;;
24485;SDS011;13449;49.374;8.584;2022-07-12T05:12:05;1.10;;;0.90;;
24485;SDS011;13449;49.374;8.584;2022-07-12T05:14:32;2.10;;;1.20;;
24485;SDS011;13449;49.374;8.584;2022-07-12T05:16:58;1.60;;;1.50;;
24485;SDS011;13449;49.374;8.584;2022-07-12T05:19:25;2.63;;;1.10;;
24485;SDS011;13449;49.374;8.584;2022-07-12T05:21:51;4.18;;;1.60;;
24485;SDS011;13449;49.374;8.584;2022-07-12T05:24:18;1.50;;;1.27;;
24485;SDS011;13449;49.374;8.584;2022-07-12T05:26:47;1.58;;;1.48;;
24485;SDS011;13449;49.374;8.584;2022-07-12T05:29:18;1.45;;;1.20;;
24485;SDS011;13449;49.374;8.584;2022-07-12T05:31:44;1.45;;;1.13;;
24485;SDS011;13449;49.374;8.584;2022-07-12T05:34:11;1.48;;;1.27;;
24485;SDS011;13449;49.374;8.584;2022-07-12T05:36:38;4.10;;;1.25;;
24485;SDS011;13449;49.374;8.584;2022-07-12T05:39:05;1.20;;;1.10;;
24485;SDS011;13449;49.374;8.584;2022-07-12T05:41:32;1.85;;;1.20;;
24485;SDS011;13449;49.374;8.584;2022-07-12T05:43:59;1.33;;;1.23;;
24485;SDS011;13449;49.374;8.584;2022-07-12T05:46:25;3.15;;;1.52;;
24485;SDS011;13449;49.374;8.584;2022-07-12T05:48:52;4.68;;;1.17;;
24485;SDS011;13449;49.374;8.584;2022-07-12T05:51:19;1.88;;;1.30;;
24485;SDS011;13449;49.374;8.584;2022-07-12T05:54:04;1.05;;;0.98;;
24485;SDS011;13449;49.374;8.584;2022-07-12T05:56:31;2.25;;;1.25;;
24485;SDS011;13449;49.374;8.584;2022-07-12T05:58:57;4.13;;;1.30;;
24485;SDS011;13449;49.374;8.584;2022-07-12T06:01:26;3.47;;;0.95;;
24485;SDS011;13449;49.374;8.584;2022-07-12T06:03:55;1.13;;;0.95;;
24485;SDS011;13449;49.374;8.584;2022-07-12T06:06:21;4.53;;;1.73;;
24485;SDS011;13449;49.374;8.584;2022-07-12T06:08:48;3.00;;;1.45;;
24485;SDS011;13449;49.374;8.584;2022-07-12T06:11:14;3.10;;;1.35;;
24485;SDS011;13449;49.374;8.584;2022-07-12T06:13:40;1.15;;;0.80;;
24485;SDS011;13449;49.374;8.584;2022-07-12T06:16:07;1.17;;;0.90;;
24485;SDS011;13449;49.374;8.584;2022-07-12T06:18:36;1.23;;;0.93;;
24485;SDS011;13449;49.374;8.584;2022-07-12T06:21:03;0.88;;;0.88;;
24485;SDS011;13449;49.374;8.584;2022-07-12T06:23:30;1.08;;;0.80;;
24485;SDS011;13449;49.374;8.584;2022-07-12T06:25:57;0.70;;;0.70;;
24485;SDS011;13449;49.374;8.584;2022-07-12T06:28:23;2.35;;;0.80;;
24485;SDS011;13449;49.374;8.584;2022-07-12T06:30:52;1.55;;;0.60;;
24485;SDS011;13449;49.374;8.584;2022-07-12T06:33:21;3.58;;;0.95;;
24485;SDS011;13449;49.374;8.584;2022-07-12T06:35:47;2.40;;;0.95;;
24485;SDS011;13449;49.374;8.584;2022-07-12T06:38:16;1.77;;;0.80;;
24485;SDS011;13449;49.374;8.584;2022-07-12T06:40:45;0.55;;;0.55;;
24485;SDS011;13449;49.374;8.584;2022-07-12T06:43:12;0.60;;;0.60;;
24485;SDS011;13449;49.374;8.584;2022-07-12T06:45:39;1.15;;;0.63;;
24485;SDS011;13449;49.374;8.584;2022-07-12T06:48:09;0.50;;;0.50;;
24485;SDS011;13449;49.374;8.584;2022-07-12T06:50:35;1.35;;;0.73;;
24485;SDS011;13449;49.374;8.584;2022-07-12T06:53:02;0.60;;;0.60;;
24485;SDS011;13449;49.374;8.584;2022-07-12T06:55:29;0.50;;;0.50;;
24485;SDS011;13449;49.374;8.584;2022-07-12T06:57:58;1.45;;;0.85;;
24485;SDS011;13449;49.374;8.584;2022-07-12T07:00:30;1.73;;;0.80;;
24485;SDS011;13449;49.374;8.584;2022-07-12T07:02:56;0.50;;;0.50;;
24485;SDS011;13449;49.374;8.584;2022-07-12T07:05:24;0.85;;;0.68;;
24485;SDS011;13449;49.374;8.584;2022-07-12T07:07:50;2.40;;;0.73;;
24485;SDS011;13449;49.374;8.584;2022-07-12T07:10:17;2.95;;;0.65;;
24485;SDS011;13449;49.374;8.584;2022-07-12T07:12:43;7.25;;;0.60;;
24485;SDS011;13449;49.374;8.584;2022-07-12T07:15:10;5.25;;;0.90;;
24485;SDS011;13449;49.374;8.584;2022-07-12T07:17:40;3.97;;;0.82;;
24485;SDS011;13449;49.374;8.584;2022-07-12T07:20:06;4.85;;;1.05;;
24485;SDS011;13449;49.374;8.584;2022-07-12T07:22:33;2.10;;;1.30;;
24485;SDS011;13449;49.374;8.584;2022-07-12T07:25:00;2.63;;;0.85;;
24485;SDS011;13449;49.374;8.584;2022-07-12T07:27:26;1.17;;;0.80;;
24485;SDS011;13449;49.374;8.584;2022-07-12T07:29:53;0.43;;;0.43;;
24485;SDS011;13449;49.374;8.584;2022-07-12T07:32:38;1.45;;;0.80;;
24485;SDS011;13449;49.374;8.584;2022-07-12T07:35:05;1.38;;;0.77;;
24485;SDS011;13449;49.374;8.584;2022-07-12T07:37:34;0.40;;;0.40;;
24485;SDS011;13449;49.374;8.584;2022-07-12T07:40:03;0.40;;;0.40;;
24485;SDS011;13449;49.374;8.584;2022-07-12T07:42:33;0.95;;;0.70;;
24485;SDS011;13449;49.374;8.584;2022-07-12T07:44:59;0.40;;;0.40;;
24485;SDS011;13449;49.374;8.584;2022-07-12T07:47:45;0.85;;;0.68;;
24485;SDS011;13449;49.374;8.584;2022-07-12T07:50:37;0.50;;;0.30;;
24485;SDS011;13449;49.374;8.584;2022-07-12T07:53:06;1.00;;;0.73;;
24485;SDS011;13449;49.374;8.584;2022-07-12T07:55:33;0.50;;;0.40;;
24485;SDS011;13449;49.374;8.584;2022-07-12T07:57:59;0.60;;;0.40;;
24485;SDS011;13449;49.374;8.584;2022-07-12T08:00:27;1.00;;;0.38;;
24485;SDS011;13449;49.374;8.584;2022-07-12T08:02:57;7.07;;;0.68;;
24485;SDS011;13449;49.374;8.584;2022-07-12T08:05:24;1.60;;;0.50;;
24485;SDS011;13449;49.374;8.584;2022-07-12T08:07:54;0.77;;;0.50;;
24485;SDS011;13449;49.374;8.584;2022-07-12T08:10:21;1.02;;;0.40;;
24485;SDS011;13449;49.374;8.584;2022-07-12T08:12:47;0.85;;;0.47;;
24485;SDS011;13449;49.374;8.584;2022-07-12T08:15:14;0.32;;;0.32;;
24485;SDS011;13449;49.374;8.584;2022-07-12T08:17:40;0.40;;;0.40;;
24485;SDS011;13449;49.374;8.584;2022-07-12T08:20:15;0.25;;;0.25;;
24485;SDS011;13449;49.374;8.584;2022-07-12T08:23:02;0.30;;;0.30;;
24485;SDS011;13449;49.374;8.584;2022-07-12T08:25:33;4.53;;;0.40;;
24485;SDS011;13449;49.374;8.584;2022-07-12T08:28:00;0.25;;;0.25;;
24485;SDS011;13449;49.374;8.584;2022-07-12T08:30:26;0.40;;;0.40;;
24485;SDS011;13449;49.374;8.584;2022-07-12T08:32:53;0.30;;;0.30;;
24485;SDS011;13449;49.374;8.584;2022-07-12T08:35:21;0.20;;;0.20;;
24485;SDS011;13449;49.374;8.584;2022-07-12T08:37:48;0.30;;;0.30;;
24485;SDS011;13449;49.374;8.584;2022-07-12T08:40:15;0.30;;;0.30;;
24485;SDS011;13449;49.374;8.584;2022-07-12T08:42:41;0.85;;;0.30;;
24485;SDS011;13449;49.374;8.584;2022-07-12T08:45:09;0.50;;;0.30;;
24485;SDS011;13449;49.374;8.584;2022-07-12T08:47:37;0.38;;;0.38;;
24485;SDS011;13449;49.374;8.584;2022-07-12T08:52:39;4.00;;;0.40;;
24485;SDS011;13449;49.374;8.584;2022-07-12T08:57:55;0.35;;;0.35;;
24485;SDS011;13449;49.374;8.584;2022-07-12T09:00:23;0.30;;;0.30;;
24485;SDS011;13449;49.374;8.584;2022-07-12T09:02:52;0.38;;;0.30;;
24485;SDS011;13449;49.374;8.584;2022-07-12T09:05:23;2.05;;;0.32;;
24485;SDS011;13449;49.374;8.584;2022-07-12T09:07:51;0.28;;;0.28;;
24485;SDS011;13449;49.374;8.584;2022-07-12T09:10:27;0.30;;;0.30;;
24485;SDS011;13449;49.374;8.584;2022-07-12T09:12:53;0.43;;;0.30;;
24485;SDS011;13449;49.374;8.584;2022-07-12T09:15:23;0.50;;;0.30;;
24485;SDS011;13449;49.374;8.584;2022-07-12T09:20:34;0.20;;;0.20;;
24485;SDS011;13449;49.374;8.584;2022-07-12T09:23:10;0.73;;;0.73;;
24485;SDS011;13449;49.374;8.584;2022-07-12T09:25:38;0.30;;;0.22;;
24485;SDS011;13449;49.374;8.584;2022-07-12T09:28:09;0.30;;;0.30;;
24485;SDS011;13449;49.374;8.584;2022-07-12T09:30:46;0.88;;;0.55;;
24485;SDS011;13449;49.374;8.584;2022-07-12T09:33:21;1.27;;;0.40;;
24485;SDS011;13449;49.374;8.584;2022-07-12T09:42:14;0.50;;;0.47;;
24485;SDS011;13449;49.374;8.584;2022-07-12T09:44:41;0.70;;;0.40;;
24485;SDS011;13449;49.374;8.584;2022-07-12T09:47:09;0.50;;;0.40;;
24485;SDS011;13449;49.374;8.584;2022-07-12T09:49:42;0.85;;;0.40;;
24485;SDS011;13449;49.374;8.584;2022-07-12T09:52:15;0.38;;;0.38;;
24485;SDS011;13449;49.374;8.584;2022-07-12T09:54:50;0.75;;;0.40;;
24485;SDS011;13449;49.374;8.584;2022-07-12T09:57:20;0.35;;;0.35;;
24485;SDS011;13449;49.374;8.584;2022-07-12T09:59:57;0.40;;;0.40;;
24485;SDS011;13449;49.374;8.584;2022-07-12T10:02:25;1.70;;;0.60;;
24485;SDS011;13449;49.374;8.584;2022-07-12T10:04:52;1.75;;;0.30;;
24485;SDS011;13449;49.374;8.584;2022-07-12T10:07:20;0.30;;;0.30;;
24485;SDS011;13449;49.374;8.584;2022-07-12T10:09:48;0.82;;;0.52;;
24485;SDS011;13449;49.374;8.584;2022-07-12T10:12:18;2.65;;;0.28;;
24485;SDS011;13449;49.374;8.584;2022-07-12T10:14:46;0.55;;;0.32;;
24485;SDS011;13449;49.374;8.584;2022-07-12T10:17:24;1.23;;;0.30;;
24485;SDS011;13449;49.374;8.584;2022-07-12T10:20:13;0.73;;;0.40;;
24485;SDS011;13449;49.374;8.584;2022-07-12T10:22:45;0.22;;;0.22;;
24485;SDS011;13449;49.374;8.584;2022-07-12T10:27:56;1.85;;;0.40;;
24485;SDS011;13449;49.374;8.584;2022-07-12T10:30:24;0.68;;;0.40;;
24485;SDS011;13449;49.374;8.584;2022-07-12T10:32:52;0.65;;;0.40;;
24485;SDS011;13449;49.374;8.584;2022-07-12T10:35:25;0.20;;;0.20;;
24485;SDS011;13449;49.374;8.584;2022-07-12T10:38:13;1.27;;;0.70;;
24485;SDS011;13449;49.374;8.584;2022-07-12T10:40:42;0.30;;;0.30;;
24485;SDS011;13449;49.374;8.584;2022-07-12T10:45:38;0.57;;;0.30;;
24485;SDS011;13449;49.374;8.584;2022-07-12T10:48:07;0.25;;;0.22;;
24485;SDS011;13449;49.374;8.584;2022-07-12T10:50:54;0.70;;;0.25;;
24485;SDS011;13449;49.374;8.584;2022-07-12T10:53:22;0.20;;;0.20;;
24485;SDS011;13449;49.374;8.584;2022-07-12T10:58:31;1.98;;;0.30;;
24485;SDS011;13449;49.374;8.584;2022-07-12T11:00:59;0.40;;;0.40;;
24485;SDS011;13449;49.374;8.584;2022-07-12T11:03:41;0.20;;;0.20;;
24485;SDS011;13449;49.374;8.584;2022-07-12T11:06:14;0.52;;;0.20;;
24485;SDS011;13449;49.374;8.584;2022-07-12T11:11:19;0.32;;;0.30;;
24485;SDS011;13449;49.374;8.584;2022-07-12T11:13:46;0.30;;;0.30;;
24485;SDS011;13449;49.374;8.584;2022-07-12T11:16:13;0.40;;;0.40;;
24485;SDS011;13449;49.374;8.584;2022-07-12T11:18:43;10.05;;;1.58;;
24485;SDS011;13449;49.374;8.584;2022-07-12T11:21:10;0.40;;;0.28;;
24485;SDS011;13449;49.374;8.584;2022-07-12T11:23:40;0.30;;;0.30;;
24485;SDS011;13449;49.374;8.584;2022-07-12T11:26:07;0.20;;;0.20;;
24485;SDS011;13449;49.374;8.584;2022-07-12T11:28:34;0.10;;;0.10;;
24485;SDS011;13449;49.374;8.584;2022-07-12T11:31:05;2.25;;;0.40;;
24485;SDS011;13449;49.374;8.584;2022-07-12T11:33:36;0.20;;;0.20;;
24485;SDS011;13449;49.374;8.584;2022-07-12T11:36:05;8.30;;;0.50;;
24485;SDS011;13449;49.374;8.584;2022-07-12T11:38:37;0.17;;;0.17;;
24485;SDS011;13449;49.374;8.584;2022-07-12T11:41:09;1.10;;;0.40;;
24485;SDS011;13449;49.374;8.584;2022-07-12T11:43:37;0.38;;;0.38;;
24485;SDS011;13449;49.374;8.584;2022-07-12T11:46:05;0.93;;;0.40;;
24485;SDS011;13449;49.374;8.584;2022-07-12T11:48:32;1.17;;;0.30;;
24485;SDS011;13449;49.374;8.584;2022-07-12T11:51:05;0.20;;;0.20;;
24485;SDS011;13449;49.374;8.584;2022-07-12T11:53:36;0.20;;;0.20;;
24485;SDS011;13449;49.374;8.584;2022-07-12T11:56:05;0.30;;;0.30;;
24485;SDS011;13449;49.374;8.584;2022-07-12T11:58:36;0.20;;;0.20;;
24485;SDS011;13449;49.374;8.584;2022-07-12T12:01:12;0.30;;;0.30;;
24485;SDS011;13449;49.374;8.584;2022-07-12T12:03:42;0.85;;;0.50;;
24485;SDS011;13449;49.374;8.584;2022-07-12T12:06:10;0.20;;;0.20;;
24485;SDS011;13449;49.374;8.584;2022-07-12T12:08:37;0.20;;;0.20;;
24485;SDS011;13449;49.374;8.584;2022-07-12T12:11:03;0.28;;;0.22;;
24485;SDS011;13449;49.374;8.584;2022-07-12T12:13:30;1.40;;;0.30;;
24485;SDS011;13449;49.374;8.584;2022-07-12T12:15:59;4.03;;;0.20;;
24485;SDS011;13449;49.374;8.584;2022-07-12T12:18:35;0.10;;;0.10;;
24485;SDS011;13449;49.374;8.584;2022-07-12T12:21:04;0.20;;;0.20;;
24485;SDS011;13449;49.374;8.584;2022-07-12T12:23:32;0.30;;;0.20;;
24485;SDS011;13449;49.374;8.584;2022-07-12T12:28:42;0.50;;;0.50;;
24485;SDS011;13449;49.374;8.584;2022-07-12T12:31:13;0.95;;;0.73;;
24485;SDS011;13449;49.374;8.584;2022-07-12T12:33:42;0.10;;;0.10;;
24485;SDS011;13449;49.374;8.584;2022-07-12T12:36:26;0.22;;;0.20;;
24485;SDS011;13449;49.374;8.584;2022-07-12T12:38:58;0.38;;;0.30;;
24485;SDS011;13449;49.374;8.584;2022-07-12T12:41:29;0.25;;;0.20;;
24485;SDS011;13449;49.374;8.584;2022-07-12T12:44:03;0.30;;;0.30;;
24485;SDS011;13449;49.374;8.584;2022-07-12T12:49:44;0.20;;;0.20;;
24485;SDS011;13449;49.374;8.584;2022-07-12T12:52:15;3.70;;;0.30;;
24485;SDS011;13449;49.374;8.584;2022-07-12T12:54:42;5.57;;;0.28;;
24485;SDS011;13449;49.374;8.584;2022-07-12T12:57:10;0.20;;;0.20;;
24485;SDS011;13449;49.374;8.584;2022-07-12T12:59:37;0.20;;;0.20;;
24485;SDS011;13449;49.374;8.584;2022-07-12T13:02:07;0.40;;;0.40;;
24485;SDS011;13449;49.374;8.584;2022-07-12T13:04:39;0.20;;;0.20;;
24485;SDS011;13449;49.374;8.584;2022-07-12T13:07:06;0.20;;;0.20;;
24485;SDS011;13449;49.374;8.584;2022-07-12T13:09:38;0.43;;;0.40;;
24485;SDS011;13449;49.374;8.584;2022-07-12T13:12:05;0.25;;;0.25;;
24485;SDS011;13449;49.374;8.584;2022-07-12T13:14:39;0.30;;;0.30;;
24485;SDS011;13449;49.374;8.584;2022-07-12T13:17:06;0.40;;;0.30;;
24485;SDS011;13449;49.374;8.584;2022-07-12T13:19:35;0.20;;;0.20;;
24485;SDS011;13449;49.374;8.584;2022-07-12T13:22:03;1.00;;;0.40;;
24485;SDS011;13449;49.374;8.584;2022-07-12T13:24:30;0.38;;;0.30;;
24485;SDS011;13449;49.374;8.584;2022-07-12T13:26:56;0.20;;;0.20;;
24485;SDS011;13449;49.374;8.584;2022-07-12T13:29:25;0.40;;;0.22;;
24485;SDS011;13449;49.374;8.584;2022-07-12T13:31:52;2.45;;;0.40;;
24485;SDS011;13449;49.374;8.584;2022-07-12T13:34:22;0.10;;;0.10;;
24485;SDS011;13449;49.374;8.584;2022-07-12T13:36:53;0.82;;;0.30;;
24485;SDS011;13449;49.374;8.584;2022-07-12T13:39:20;1.65;;;0.40;;
24485;SDS011;13449;49.374;8.584;2022-07-12T13:42:05;0.43;;;0.30;;
24485;SDS011;13449;49.374;8.584;2022-07-12T13:44:32;0.30;;;0.30;;
24485;SDS011;13449;49.374;8.584;2022-07-12T13:46:58;3.85;;;0.30;;
24485;SDS011;13449;49.374;8.584;2022-07-12T13:49:25;0.20;;;0.20;;
24485;SDS011;13449;49.374;8.584;2022-07-12T13:51:51;0.98;;;0.25;;
24485;SDS011;13449;49.374;8.584;2022-07-12T13:54:18;0.20;;;0.20;;
24485;SDS011;13449;49.374;8.584;2022-07-12T13:56:47;0.47;;;0.30;;
24485;SDS011;13449;49.374;8.584;2022-07-12T13:59:14;0.20;;;0.20;;
24485;SDS011;13449;49.374;8.584;2022-07-12T14:01:41;3.40;;;0.30;;
24485;SDS011;13449;49.374;8.584;2022-07-12T14:04:07;0.40;;;0.40;;
24485;SDS011;13449;49.374;8.584;2022-07-12T14:06:34;0.30;;;0.20;;
24485;SDS011;13449;49.374;8.584;2022-07-12T14:09:00;8.48;;;0.60;;
24485;SDS011;13449;49.374;8.584;2022-07-12T14:11:29;0.20;;;0.20;;
24485;SDS011;13449;49.374;8.584;2022-07-12T14:13:58;0.90;;;0.40;;
24485;SDS011;13449;49.374;8.584;2022-07-12T14:16:25;0.30;;;0.30;;
24485;SDS011;13449;49.374;8.584;2022-07-12T14:18:51;0.28;;;0.20;;
24485;SDS011;13449;49.374;8.584;2022-07-12T14:21:18;0.40;;;0.40;;
24485;SDS011;13449;49.374;8.584;2022-07-12T14:23:44;0.50;;;0.40;;
24485;SDS011;13449;49.374;8.584;2022-07-12T14:26:11;0.47;;;0.38;;
24485;SDS011;13449;49.374;8.584;2022-07-12T14:28:37;2.00;;;0.30;;
24485;SDS011;13449;49.374;8.584;2022-07-12T14:31:04;1.05;;;0.32;;
24485;SDS011;13449;49.374;8.584;2022-07-12T14:33:31;0.20;;;0.20;;
24485;SDS011;13449;49.374;8.584;2022-07-12T14:35:57;0.20;;;0.20;;
24485;SDS011;13449;49.374;8.584;2022-07-12T14:38:29;0.20;;;0.20;;
24485;SDS011;13449;49.374;8.584;2022-07-12T14:40:58;5.43;;;0.30;;
24485;SDS011;13449;49.374;8.584;2022-07-12T14:43:25;0.25;;;0.25;;
24485;SDS011;13449;49.374;8.584;2022-07-12T14:45:52;0.68;;;0.30;;
24485;SDS011;13449;49.374;8.584;2022-07-12T14:48:18;0.30;;;0.30;;
24485;SDS011;13449;49.374;8.584;2022-07-12T14:50:45;6.47;;;0.20;;
24485;SDS011;13449;49.374;8.584;2022-07-12T14:53:18;1.55;;;0.20;;
24485;SDS011;13449;49.374;8.584;2022-07-12T14:55:45;0.20;;;0.20;;
24485;SDS011;13449;49.374;8.584;2022-07-12T14:58:11;0.30;;;0.30;;
24485;SDS011;13449;49.374;8.584;2022-07-12T15:00:37;0.40;;;0.40;;
24485;SDS011;13449;49.374;8.584;2022-07-12T15:03:06;0.38;;;0.38;;
24485;SDS011;13449;49.374;8.584;2022-07-12T15:05:42;0.32;;;0.32;;
24485;SDS011;13449;49.374;8.584;2022-07-12T15:08:08;0.30;;;0.30;;
24485;SDS011;13449;49.374;8.584;2022-07-12T15:10:40;0.47;;;0.32;;
24485;SDS011;13449;49.374;8.584;2022-07-12T15:13:12;2.72;;;0.35;;
24485;SDS011;13449;49.374;8.584;2022-07-12T15:15:41;0.38;;;0.38;;
24485;SDS011;13449;49.374;8.584;2022-07-12T15:18:10;0.77;;;0.30;;
24485;SDS011;13449;49.374;8.584;2022-07-12T15:20:37;1.10;;;0.32;;
24485;SDS011;13449;49.374;8.584;2022-07-12T15:23:03;0.30;;;0.30;;
24485;SDS011;13449;49.374;8.584;2022-07-12T15:25:30;1.25;;;0.20;;
24485;SDS011;13449;49.374;8.584;2022-07-12T15:28:00;0.80;;;0.35;;